sensor_id;sensor_type;location;lat;lon;timestamp;temperature;humidity
69261;DHT22;56378;52.404;20.816;2022-12-24T00:02:10;4.30;99.90
69261;DHT22;56378;52.404;20.816;2022-12-24T00:04:36;4.30;99.90
69261;DHT22;56378;52.404;20.816;2022-12-24T00:07:02;4.30;99.90
69261;DHT22;56378;52.404;20.816;2022-12-24T00:09:28;4.30;99.90
69261;DHT22;56378;52.404;20.816;2022-12-24T00:11:53;4.30;99.90
69261;DHT22;56378;52.404;20.816;2022-12-24T00:14:19;4.30;99.90
69261;DHT22;56378;52.404;20.816;2022-12-24T00:16:45;4.30;99.90
69261;DHT22;56378;52.404;20.816;2022-12-24T00:19:11;4.30;99.90
69261;DHT22;56378;52.404;20.816;2022-12-24T00:21:37;4.30;99.90
69261;DHT22;56378;52.404;20.816;2022-12-24T00:24:03;4.40;99.90
69261;DHT22;56378;52.404;20.816;2022-12-24T00:26:33;4.40;99.90
69261;DHT22;56378;52.404;20.816;2022-12-24T00:28:59;4.30;99.90
69261;DHT22;56378;52.404;20.816;2022-12-24T00:31:25;4.30;99.90
69261;DHT22;56378;52.404;20.816;2022-12-24T00:33:51;4.30;99.90
69261;DHT22;56378;52.404;20.816;2022-12-24T00:36:18;4.30;99.90
69261;DHT22;56378;52.404;20.816;2022-12-24T00:38:44;4.30;99.90
69261;DHT22;56378;52.404;20.816;2022-12-24T00:41:11;4.30;99.90
69261;DHT22;56378;52.404;20.816;2022-12-24T00:43:55;4.30;99.90
69261;DHT22;56378;52.404;20.816;2022-12-24T00:46:23;4.30;99.90
69261;DHT22;56378;52.404;20.816;2022-12-24T00:48:49;4.30;99.90
69261;DHT22;56378;52.404;20.816;2022-12-24T00:51:15;4.20;99.90
69261;DHT22;56378;52.404;20.816;2022-12-24T00:53:41;4.20;99.90
69261;DHT22;56378;52.404;20.816;2022-12-24T00:56:07;4.30;99.90
69261;DHT22;56378;52.404;20.816;2022-12-24T00:58:33;4.30;99.90
69261;DHT22;56378;52.404;20.816;2022-12-24T01:00:59;4.20;99.90
69261;DHT22;56378;52.404;20.816;2022-12-24T01:03:25;4.20;99.90
69261;DHT22;56378;52.404;20.816;2022-12-24T01:06:01;4.20;99.90
69261;DHT22;56378;52.404;20.816;2022-12-24T01:08:26;4.20;99.90
69261;DHT22;56378;52.404;20.816;2022-12-24T01:10:52;4.10;99.90
69261;DHT22;56378;52.404;20.816;2022-12-24T01:13:18;4.10;99.90
69261;DHT22;56378;52.404;20.816;2022-12-24T01:15:44;4.10;99.90
69261;DHT22;56378;52.404;20.816;2022-12-24T01:18:09;4.10;99.90
69261;DHT22;56378;52.404;20.816;2022-12-24T01:20:35;4.10;99.90
69261;DHT22;56378;52.404;20.816;2022-12-24T01:23:01;4.20;99.90
69261;DHT22;56378;52.404;20.816;2022-12-24T01:25:26;4.20;99.90
69261;DHT22;56378;52.404;20.816;2022-12-24T01:27:52;4.20;99.90
69261;DHT22;56378;52.404;20.816;2022-12-24T01:30:18;4.20;99.90
69261;DHT22;56378;52.404;20.816;2022-12-24T01:32:43;4.20;99.90
69261;DHT22;56378;52.404;20.816;2022-12-24T01:35:09;4.20;99.90
69261;DHT22;56378;52.404;20.816;2022-12-24T01:37:35;4.20;99.90
69261;DHT22;56378;52.404;20.816;2022-12-24T01:40:01;4.20;99.90
69261;DHT22;56378;52.404;20.816;2022-12-24T01:42:47;4.20;99.90
69261;DHT22;56378;52.404;20.816;2022-12-24T01:48:18;4.20;99.90
69261;DHT22;56378;52.404;20.816;2022-12-24T01:50:46;4.20;99.90
69261;DHT22;56378;52.404;20.816;2022-12-24T01:53:13;4.20;99.90
69261;DHT22;56378;52.404;20.816;2022-12-24T01:55:40;4.20;99.90
69261;DHT22;56378;52.404;20.816;2022-12-24T01:58:07;4.20;99.90
69261;DHT22;56378;52.404;20.816;2022-12-24T02:00:34;4.20;99.90
69261;DHT22;56378;52.404;20.816;2022-12-24T02:03:00;4.20;99.90
69261;DHT22;56378;52.404;20.816;2022-12-24T02:05:34;4.20;99.90
69261;DHT22;56378;52.404;20.816;2022-12-24T02:08:03;4.20;99.90
69261;DHT22;56378;52.404;20.816;2022-12-24T02:10:29;4.20;99.90
69261;DHT22;56378;52.404;20.816;2022-12-24T02:12:56;4.20;99.90
69261;DHT22;56378;52.404;20.816;2022-12-24T02:15:23;4.20;99.90
69261;DHT22;56378;52.404;20.816;2022-12-24T02:18:03;4.20;99.90
69261;DHT22;56378;52.404;20.816;2022-12-24T02:32:02;4.20;99.90
69261;DHT22;56378;52.404;20.816;2022-12-24T02:34:48;4.20;99.90
69261;DHT22;56378;52.404;20.816;2022-12-24T02:37:25;4.20;99.90
69261;DHT22;56378;52.404;20.816;2022-12-24T02:40:17;4.20;99.90
69261;DHT22;56378;52.404;20.816;2022-12-24T02:42:49;4.20;99.90
69261;DHT22;56378;52.404;20.816;2022-12-24T02:45:28;4.20;99.90
69261;DHT22;56378;52.404;20.816;2022-12-24T02:47:55;4.20;99.90
69261;DHT22;56378;52.404;20.816;2022-12-24T02:50:21;4.20;99.90
69261;DHT22;56378;52.404;20.816;2022-12-24T02:52:47;4.20;99.90
69261;DHT22;56378;52.404;20.816;2022-12-24T03:03:36;4.10;99.90
69261;DHT22;56378;52.404;20.816;2022-12-24T03:09:06;4.10;99.90
69261;DHT22;56378;52.404;20.816;2022-12-24T03:11:35;4.10;99.90
69261;DHT22;56378;52.404;20.816;2022-12-24T03:14:02;4.10;99.90
69261;DHT22;56378;52.404;20.816;2022-12-24T03:16:28;4.10;99.90
69261;DHT22;56378;52.404;20.816;2022-12-24T03:18:55;4.10;99.90
69261;DHT22;56378;52.404;20.816;2022-12-24T03:21:28;4.10;99.90
69261;DHT22;56378;52.404;20.816;2022-12-24T03:23:55;4.10;99.90
69261;DHT22;56378;52.404;20.816;2022-12-24T03:26:21;4.10;99.90
69261;DHT22;56378;52.404;20.816;2022-12-24T03:28:48;4.10;99.90
69261;DHT22;56378;52.404;20.816;2022-12-24T03:31:14;4.10;99.90
69261;DHT22;56378;52.404;20.816;2022-12-24T03:33:41;4.10;99.90
69261;DHT22;56378;52.404;20.816;2022-12-24T03:36:07;4.10;99.90
69261;DHT22;56378;52.404;20.816;2022-12-24T03:38:33;4.10;99.90
69261;DHT22;56378;52.404;20.816;2022-12-24T03:41:00;4.10;99.90
69261;DHT22;56378;52.404;20.816;2022-12-24T03:43:26;4.00;99.90
69261;DHT22;56378;52.404;20.816;2022-12-24T03:45:52;4.00;99.90
69261;DHT22;56378;52.404;20.816;2022-12-24T03:48:17;4.00;99.90
69261;DHT22;56378;52.404;20.816;2022-12-24T03:50:43;4.00;99.90
69261;DHT22;56378;52.404;20.816;2022-12-24T03:53:09;4.00;99.90
69261;DHT22;56378;52.404;20.816;2022-12-24T03:55:35;3.90;99.90
69261;DHT22;56378;52.404;20.816;2022-12-24T03:58:00;3.90;99.90
69261;DHT22;56378;52.404;20.816;2022-12-24T04:00:26;3.90;99.90
69261;DHT22;56378;52.404;20.816;2022-12-24T04:02:52;3.90;99.90
69261;DHT22;56378;52.404;20.816;2022-12-24T04:05:19;3.90;99.90
69261;DHT22;56378;52.404;20.816;2022-12-24T04:07:45;3.90;99.90
69261;DHT22;56378;52.404;20.816;2022-12-24T04:10:12;3.90;99.90
69261;DHT22;56378;52.404;20.816;2022-12-24T04:12:38;3.90;99.90
69261;DHT22;56378;52.404;20.816;2022-12-24T04:15:04;3.90;99.90
69261;DHT22;56378;52.404;20.816;2022-12-24T04:17:30;3.90;99.90
69261;DHT22;56378;52.404;20.816;2022-12-24T04:19:56;3.90;99.90
69261;DHT22;56378;52.404;20.816;2022-12-24T04:22:22;3.90;99.90
69261;DHT22;56378;52.404;20.816;2022-12-24T04:24:48;3.80;99.90
69261;DHT22;56378;52.404;20.816;2022-12-24T04:27:14;3.90;99.90
69261;DHT22;56378;52.404;20.816;2022-12-24T04:29:40;3.90;99.90
69261;DHT22;56378;52.404;20.816;2022-12-24T04:32:06;3.90;99.90
69261;DHT22;56378;52.404;20.816;2022-12-24T04:34:31;3.80;99.90
69261;DHT22;56378;52.404;20.816;2022-12-24T04:36:57;3.80;99.90
69261;DHT22;56378;52.404;20.816;2022-12-24T04:39:23;3.80;99.90
69261;DHT22;56378;52.404;20.816;2022-12-24T04:41:49;3.80;99.90
69261;DHT22;56378;52.404;20.816;2022-12-24T04:44:14;3.90;99.90
69261;DHT22;56378;52.404;20.816;2022-12-24T04:46:40;3.90;99.90
69261;DHT22;56378;52.404;20.816;2022-12-24T04:49:06;3.80;99.90
69261;DHT22;56378;52.404;20.816;2022-12-24T04:51:32;3.90;99.90
69261;DHT22;56378;52.404;20.816;2022-12-24T04:53:58;3.90;99.90
69261;DHT22;56378;52.404;20.816;2022-12-24T04:56:26;3.90;99.90
69261;DHT22;56378;52.404;20.816;2022-12-24T04:58:52;3.80;99.90
69261;DHT22;56378;52.404;20.816;2022-12-24T05:01:23;3.80;99.90
69261;DHT22;56378;52.404;20.816;2022-12-24T05:03:50;3.80;99.90
69261;DHT22;56378;52.404;20.816;2022-12-24T05:06:19;3.80;99.90
69261;DHT22;56378;52.404;20.816;2022-12-24T05:08:45;3.80;99.90
69261;DHT22;56378;52.404;20.816;2022-12-24T05:11:11;3.80;99.90
69261;DHT22;56378;52.404;20.816;2022-12-24T05:13:44;3.80;99.90
69261;DHT22;56378;52.404;20.816;2022-12-24T05:16:11;3.70;99.90
69261;DHT22;56378;52.404;20.816;2022-12-24T05:18:36;3.70;99.90
69261;DHT22;56378;52.404;20.816;2022-12-24T05:21:06;3.70;99.90
69261;DHT22;56378;52.404;20.816;2022-12-24T05:23:32;3.70;99.90
69261;DHT22;56378;52.404;20.816;2022-12-24T05:26:30;3.60;99.90
69261;DHT22;56378;52.404;20.816;2022-12-24T05:28:58;3.70;99.90
69261;DHT22;56378;52.404;20.816;2022-12-24T05:31:26;3.60;99.90
69261;DHT22;56378;52.404;20.816;2022-12-24T05:33:52;3.60;99.90
69261;DHT22;56378;52.404;20.816;2022-12-24T05:36:20;3.60;99.90
69261;DHT22;56378;52.404;20.816;2022-12-24T05:38:46;3.60;99.90
69261;DHT22;56378;52.404;20.816;2022-12-24T05:41:11;3.50;99.90
69261;DHT22;56378;52.404;20.816;2022-12-24T05:43:37;3.60;99.90
69261;DHT22;56378;52.404;20.816;2022-12-24T05:46:12;3.60;99.90
69261;DHT22;56378;52.404;20.816;2022-12-24T05:48:38;3.60;99.90
69261;DHT22;56378;52.404;20.816;2022-12-24T05:51:06;3.60;99.90
69261;DHT22;56378;52.404;20.816;2022-12-24T05:53:32;3.60;99.90
69261;DHT22;56378;52.404;20.816;2022-12-24T05:56:06;3.60;99.90
69261;DHT22;56378;52.404;20.816;2022-12-24T05:58:33;3.60;99.90
69261;DHT22;56378;52.404;20.816;2022-12-24T06:01:00;3.60;99.90
69261;DHT22;56378;52.404;20.816;2022-12-24T06:03:26;3.60;99.90
69261;DHT22;56378;52.404;20.816;2022-12-24T06:06:00;3.60;99.90
69261;DHT22;56378;52.404;20.816;2022-12-24T06:08:26;3.60;99.90
69261;DHT22;56378;52.404;20.816;2022-12-24T06:10:57;3.60;99.90
69261;DHT22;56378;52.404;20.816;2022-12-24T06:13:23;3.60;99.90
69261;DHT22;56378;52.404;20.816;2022-12-24T06:15:50;3.60;99.90
69261;DHT22;56378;52.404;20.816;2022-12-24T06:18:15;3.50;99.90
69261;DHT22;56378;52.404;20.816;2022-12-24T06:20:41;3.50;99.90
69261;DHT22;56378;52.404;20.816;2022-12-24T06:23:07;3.50;99.90
69261;DHT22;56378;52.404;20.816;2022-12-24T06:25:33;3.50;99.90
69261;DHT22;56378;52.404;20.816;2022-12-24T06:27:59;3.50;99.90
69261;DHT22;56378;52.404;20.816;2022-12-24T06:30:24;3.50;99.90
69261;DHT22;56378;52.404;20.816;2022-12-24T06:32:50;3.50;99.90
69261;DHT22;56378;52.404;20.816;2022-12-24T06:35:16;3.50;99.90
69261;DHT22;56378;52.404;20.816;2022-12-24T06:37:41;3.40;99.90
69261;DHT22;56378;52.404;20.816;2022-12-24T06:40:08;3.40;99.90
69261;DHT22;56378;52.404;20.816;2022-12-24T06:42:33;3.40;99.90
69261;DHT22;56378;52.404;20.816;2022-12-24T06:44:59;3.50;99.90
69261;DHT22;56378;52.404;20.816;2022-12-24T06:47:25;3.40;99.90
69261;DHT22;56378;52.404;20.816;2022-12-24T06:49:50;3.40;99.90
69261;DHT22;56378;52.404;20.816;2022-12-24T06:52:16;3.50;99.90
69261;DHT22;56378;52.404;20.816;2022-12-24T06:54:42;3.40;99.90
69261;DHT22;56378;52.404;20.816;2022-12-24T06:57:08;3.40;99.90
69261;DHT22;56378;52.404;20.816;2022-12-24T06:59:33;3.40;99.90
69261;DHT22;56378;52.404;20.816;2022-12-24T07:01:59;3.40;99.90
69261;DHT22;56378;52.404;20.816;2022-12-24T07:04:25;3.40;99.90
69261;DHT22;56378;52.404;20.816;2022-12-24T07:06:50;3.40;99.90
69261;DHT22;56378;52.404;20.816;2022-12-24T07:09:16;3.50;99.90
69261;DHT22;56378;52.404;20.816;2022-12-24T07:11:42;3.40;99.90
69261;DHT22;56378;52.404;20.816;2022-12-24T07:14:07;3.40;99.90
69261;DHT22;56378;52.404;20.816;2022-12-24T07:16:33;3.40;99.90
69261;DHT22;56378;52.404;20.816;2022-12-24T07:18:59;3.40;99.90
69261;DHT22;56378;52.404;20.816;2022-12-24T07:21:24;3.50;99.90
69261;DHT22;56378;52.404;20.816;2022-12-24T07:23:50;3.50;99.90
69261;DHT22;56378;52.404;20.816;2022-12-24T07:26:16;3.50;99.90
69261;DHT22;56378;52.404;20.816;2022-12-24T07:28:41;3.50;99.90
69261;DHT22;56378;52.404;20.816;2022-12-24T07:31:07;3.40;99.90
69261;DHT22;56378;52.404;20.816;2022-12-24T07:33:33;3.40;99.90
69261;DHT22;56378;52.404;20.816;2022-12-24T07:36:04;3.40;99.90
69261;DHT22;56378;52.404;20.816;2022-12-24T07:38:31;3.40;99.90
69261;DHT22;56378;52.404;20.816;2022-12-24T07:40:57;3.50;99.90
69261;DHT22;56378;52.404;20.816;2022-12-24T07:43:24;3.50;99.90
69261;DHT22;56378;52.404;20.816;2022-12-24T07:45:52;3.50;99.90
69261;DHT22;56378;52.404;20.816;2022-12-24T07:48:18;3.50;99.90
69261;DHT22;56378;52.404;20.816;2022-12-24T07:50:44;3.50;99.90
69261;DHT22;56378;52.404;20.816;2022-12-24T07:53:10;3.50;99.90
69261;DHT22;56378;52.404;20.816;2022-12-24T07:55:35;3.50;99.90
69261;DHT22;56378;52.404;20.816;2022-12-24T07:58:01;3.40;99.90
69261;DHT22;56378;52.404;20.816;2022-12-24T08:00:27;3.50;99.90
69261;DHT22;56378;52.404;20.816;2022-12-24T08:02:52;3.50;99.90
69261;DHT22;56378;52.404;20.816;2022-12-24T08:05:18;3.50;99.90
69261;DHT22;56378;52.404;20.816;2022-12-24T08:07:44;3.50;99.90
69261;DHT22;56378;52.404;20.816;2022-12-24T08:10:10;3.50;99.90
69261;DHT22;56378;52.404;20.816;2022-12-24T08:12:35;3.50;99.90
69261;DHT22;56378;52.404;20.816;2022-12-24T08:15:01;3.50;99.90
69261;DHT22;56378;52.404;20.816;2022-12-24T08:17:27;3.60;99.90
69261;DHT22;56378;52.404;20.816;2022-12-24T08:19:52;3.60;99.90
69261;DHT22;56378;52.404;20.816;2022-12-24T08:22:18;3.60;99.90
69261;DHT22;56378;52.404;20.816;2022-12-24T08:24:44;3.60;99.90
69261;DHT22;56378;52.404;20.816;2022-12-24T08:27:09;3.60;99.90
69261;DHT22;56378;52.404;20.816;2022-12-24T08:29:35;3.60;99.90
69261;DHT22;56378;52.404;20.816;2022-12-24T08:32:01;3.60;99.90
69261;DHT22;56378;52.404;20.816;2022-12-24T08:34:26;3.60;99.90
69261;DHT22;56378;52.404;20.816;2022-12-24T08:36:52;3.70;99.90
69261;DHT22;56378;52.404;20.816;2022-12-24T08:39:18;3.80;99.90
69261;DHT22;56378;52.404;20.816;2022-12-24T08:41:44;3.80;99.90
69261;DHT22;56378;52.404;20.816;2022-12-24T08:44:09;3.80;99.90
69261;DHT22;56378;52.404;20.816;2022-12-24T08:46:35;3.80;99.90
69261;DHT22;56378;52.404;20.816;2022-12-24T08:49:01;3.80;99.90
69261;DHT22;56378;52.404;20.816;2022-12-24T08:51:27;3.80;99.90
69261;DHT22;56378;52.404;20.816;2022-12-24T08:53:52;3.80;99.90
69261;DHT22;56378;52.404;20.816;2022-12-24T08:56:18;3.80;99.90
69261;DHT22;56378;52.404;20.816;2022-12-24T08:58:44;3.80;99.90
69261;DHT22;56378;52.404;20.816;2022-12-24T09:01:12;3.80;99.90
69261;DHT22;56378;52.404;20.816;2022-12-24T09:03:39;3.80;99.90
69261;DHT22;56378;52.404;20.816;2022-12-24T09:06:06;3.80;99.90
69261;DHT22;56378;52.404;20.816;2022-12-24T09:08:32;3.80;99.90
69261;DHT22;56378;52.404;20.816;2022-12-24T09:11:12;3.80;99.90
69261;DHT22;56378;52.404;20.816;2022-12-24T09:13:39;3.80;99.90
69261;DHT22;56378;52.404;20.816;2022-12-24T09:16:06;3.80;99.90
69261;DHT22;56378;52.404;20.816;2022-12-24T09:18:32;3.80;99.90
69261;DHT22;56378;52.404;20.816;2022-12-24T09:21:07;3.80;99.90
69261;DHT22;56378;52.404;20.816;2022-12-24T09:23:37;3.80;99.90
69261;DHT22;56378;52.404;20.816;2022-12-24T09:26:15;3.80;99.90
69261;DHT22;56378;52.404;20.816;2022-12-24T09:28:41;3.80;99.90
69261;DHT22;56378;52.404;20.816;2022-12-24T09:31:11;3.80;99.90
69261;DHT22;56378;52.404;20.816;2022-12-24T09:33:38;3.80;99.90
69261;DHT22;56378;52.404;20.816;2022-12-24T09:36:05;3.80;99.90
69261;DHT22;56378;52.404;20.816;2022-12-24T09:38:32;3.80;99.90
69261;DHT22;56378;52.404;20.816;2022-12-24T09:40:59;3.80;99.90
69261;DHT22;56378;52.404;20.816;2022-12-24T09:43:27;3.80;99.90
69261;DHT22;56378;52.404;20.816;2022-12-24T09:48:31;3.80;99.90
69261;DHT22;56378;52.404;20.816;2022-12-24T09:51:10;3.70;99.90
69261;DHT22;56378;52.404;20.816;2022-12-24T09:56:49;3.80;99.90
69261;DHT22;56378;52.404;20.816;2022-12-24T09:59:20;3.80;99.90
69261;DHT22;56378;52.404;20.816;2022-12-24T10:01:48;3.80;99.90
69261;DHT22;56378;52.404;20.816;2022-12-24T10:04:18;3.90;99.90
69261;DHT22;56378;52.404;20.816;2022-12-24T10:07:01;3.90;99.90
69261;DHT22;56378;52.404;20.816;2022-12-24T10:12:16;4.00;99.90
69261;DHT22;56378;52.404;20.816;2022-12-24T10:15:22;4.00;99.90
69261;DHT22;56378;52.404;20.816;2022-12-24T10:17:59;4.00;99.90
69261;DHT22;56378;52.404;20.816;2022-12-24T10:21:27;3.90;99.90
69261;DHT22;56378;52.404;20.816;2022-12-24T10:23:47;3.90;99.90
69261;DHT22;56378;52.404;20.816;2022-12-24T10:29:19;3.90;99.90
69261;DHT22;56378;52.404;20.816;2022-12-24T10:34:45;3.90;99.90
69261;DHT22;56378;52.404;20.816;2022-12-24T10:37:18;3.90;99.90
69261;DHT22;56378;52.404;20.816;2022-12-24T10:39:45;4.00;99.90
69261;DHT22;56378;52.404;20.816;2022-12-24T10:42:11;4.00;99.90
69261;DHT22;56378;52.404;20.816;2022-12-24T10:44:38;4.00;99.90
69261;DHT22;56378;52.404;20.816;2022-12-24T10:47:07;4.00;99.90
69261;DHT22;56378;52.404;20.816;2022-12-24T10:49:52;4.00;99.90
69261;DHT22;56378;52.404;20.816;2022-12-24T10:52:24;4.00;99.90
69261;DHT22;56378;52.404;20.816;2022-12-24T10:57:45;4.00;99.90
69261;DHT22;56378;52.404;20.816;2022-12-24T11:00:22;3.90;99.90
69261;DHT22;56378;52.404;20.816;2022-12-24T11:08:26;4.00;99.90
69261;DHT22;56378;52.404;20.816;2022-12-24T11:11:02;4.10;99.90
69261;DHT22;56378;52.404;20.816;2022-12-24T11:13:29;4.10;99.90
69261;DHT22;56378;52.404;20.816;2022-12-24T11:18:45;4.10;99.90
69261;DHT22;56378;52.404;20.816;2022-12-24T11:23:58;4.10;99.90
69261;DHT22;56378;52.404;20.816;2022-12-24T11:26:27;4.10;99.90
69261;DHT22;56378;52.404;20.816;2022-12-24T11:29:23;4.10;99.90
69261;DHT22;56378;52.404;20.816;2022-12-24T11:31:50;4.10;99.90
69261;DHT22;56378;52.404;20.816;2022-12-24T11:34:22;4.10;99.90
69261;DHT22;56378;52.404;20.816;2022-12-24T11:36:53;4.10;99.90
69261;DHT22;56378;52.404;20.816;2022-12-24T11:39:22;4.20;99.90
69261;DHT22;56378;52.404;20.816;2022-12-24T11:41:49;4.10;99.90
69261;DHT22;56378;52.404;20.816;2022-12-24T11:44:26;4.20;99.90
69261;DHT22;56378;52.404;20.816;2022-12-24T11:46:53;4.20;99.90
69261;DHT22;56378;52.404;20.816;2022-12-24T11:49:27;4.20;99.90
69261;DHT22;56378;52.404;20.816;2022-12-24T11:57:28;4.20;99.90
69261;DHT22;56378;52.404;20.816;2022-12-24T11:59:59;4.20;99.90
69261;DHT22;56378;52.404;20.816;2022-12-24T12:02:31;4.10;99.90
69261;DHT22;56378;52.404;20.816;2022-12-24T12:05:03;4.20;99.90
69261;DHT22;56378;52.404;20.816;2022-12-24T12:07:33;4.20;99.90
69261;DHT22;56378;52.404;20.816;2022-12-24T12:10:05;4.20;99.90
69261;DHT22;56378;52.404;20.816;2022-12-24T12:12:36;4.20;99.90
69261;DHT22;56378;52.404;20.816;2022-12-24T12:15:24;4.20;99.90
69261;DHT22;56378;52.404;20.816;2022-12-24T12:18:07;4.20;99.90
69261;DHT22;56378;52.404;20.816;2022-12-24T12:20:42;4.20;99.90
69261;DHT22;56378;52.404;20.816;2022-12-24T12:25:49;4.20;99.90
69261;DHT22;56378;52.404;20.816;2022-12-24T12:30:54;4.20;99.90
69261;DHT22;56378;52.404;20.816;2022-12-24T12:33:42;4.20;99.90
69261;DHT22;56378;52.404;20.816;2022-12-24T12:36:12;4.20;99.90
69261;DHT22;56378;52.404;20.816;2022-12-24T12:38:40;4.20;99.90
69261;DHT22;56378;52.404;20.816;2022-12-24T12:41:19;4.20;99.90
69261;DHT22;56378;52.404;20.816;2022-12-24T12:44:08;4.10;99.90
69261;DHT22;56378;52.404;20.816;2022-12-24T12:49:48;4.10;99.90
69261;DHT22;56378;52.404;20.816;2022-12-24T12:57:14;4.00;99.90
69261;DHT22;56378;52.404;20.816;2022-12-24T12:59:59;4.00;99.90
69261;DHT22;56378;52.404;20.816;2022-12-24T13:08:41;3.90;99.90
69261;DHT22;56378;52.404;20.816;2022-12-24T13:20:14;3.80;99.90
69261;DHT22;56378;52.404;20.816;2022-12-24T13:22:53;3.80;99.90
69261;DHT22;56378;52.404;20.816;2022-12-24T13:25:21;3.70;99.90
69261;DHT22;56378;52.404;20.816;2022-12-24T13:27:48;3.70;99.90
69261;DHT22;56378;52.404;20.816;2022-12-24T13:30:34;3.70;99.90
69261;DHT22;56378;52.404;20.816;2022-12-24T13:33:00;3.70;99.90
69261;DHT22;56378;52.404;20.816;2022-12-24T13:35:31;3.70;99.90
69261;DHT22;56378;52.404;20.816;2022-12-24T13:40:54;3.60;99.90
69261;DHT22;56378;52.404;20.816;2022-12-24T13:43:20;3.60;99.90
69261;DHT22;56378;52.404;20.816;2022-12-24T13:45:48;3.60;99.90
69261;DHT22;56378;52.404;20.816;2022-12-24T13:48:27;3.60;99.90
69261;DHT22;56378;52.404;20.816;2022-12-24T13:50:55;3.60;99.90
69261;DHT22;56378;52.404;20.816;2022-12-24T13:53:26;3.60;99.90
69261;DHT22;56378;52.404;20.816;2022-12-24T13:56:21;3.50;99.90
69261;DHT22;56378;52.404;20.816;2022-12-24T14:01:37;3.50;99.90
69261;DHT22;56378;52.404;20.816;2022-12-24T14:04:07;3.40;99.90
69261;DHT22;56378;52.404;20.816;2022-12-24T14:06:39;3.30;99.90
69261;DHT22;56378;52.404;20.816;2022-12-24T14:09:18;3.30;99.90
69261;DHT22;56378;52.404;20.816;2022-12-24T14:14:33;3.30;99.90
69261;DHT22;56378;52.404;20.816;2022-12-24T14:17:11;3.30;99.90
69261;DHT22;56378;52.404;20.816;2022-12-24T14:19:41;3.30;99.90
69261;DHT22;56378;52.404;20.816;2022-12-24T14:22:15;3.30;99.90
69261;DHT22;56378;52.404;20.816;2022-12-24T14:24:48;3.30;99.90
69261;DHT22;56378;52.404;20.816;2022-12-24T14:27:42;3.30;99.90
69261;DHT22;56378;52.404;20.816;2022-12-24T14:30:21;3.20;99.90
69261;DHT22;56378;52.404;20.816;2022-12-24T14:32:48;3.20;99.90
69261;DHT22;56378;52.404;20.816;2022-12-24T14:35:15;3.10;99.90
69261;DHT22;56378;52.404;20.816;2022-12-24T14:37:45;3.10;99.90
69261;DHT22;56378;52.404;20.816;2022-12-24T14:40:17;3.10;99.90
69261;DHT22;56378;52.404;20.816;2022-12-24T14:43:17;3.00;99.90
69261;DHT22;56378;52.404;20.816;2022-12-24T14:45:58;3.00;99.90
69261;DHT22;56378;52.404;20.816;2022-12-24T14:49:22;3.00;99.90
69261;DHT22;56378;52.404;20.816;2022-12-24T14:54:37;2.90;99.90
69261;DHT22;56378;52.404;20.816;2022-12-24T14:59:54;2.90;99.90
69261;DHT22;56378;52.404;20.816;2022-12-24T15:02:34;2.80;99.90
69261;DHT22;56378;52.404;20.816;2022-12-24T15:05:24;2.80;99.90
69261;DHT22;56378;52.404;20.816;2022-12-24T15:08:46;2.80;99.90
69261;DHT22;56378;52.404;20.816;2022-12-24T15:11:06;2.80;99.90
69261;DHT22;56378;52.404;20.816;2022-12-24T15:13:42;2.80;99.90
69261;DHT22;56378;52.404;20.816;2022-12-24T15:16:10;2.80;99.90
69261;DHT22;56378;52.404;20.816;2022-12-24T15:18:50;2.80;99.90
69261;DHT22;56378;52.404;20.816;2022-12-24T15:23:54;2.80;99.90
69261;DHT22;56378;52.404;20.816;2022-12-24T15:26:24;2.80;99.90
69261;DHT22;56378;52.404;20.816;2022-12-24T15:28:52;2.80;99.90
69261;DHT22;56378;52.404;20.816;2022-12-24T15:31:20;2.80;99.90
69261;DHT22;56378;52.404;20.816;2022-12-24T15:33:47;2.80;99.90
69261;DHT22;56378;52.404;20.816;2022-12-24T15:36:15;2.80;99.90
69261;DHT22;56378;52.404;20.816;2022-12-24T15:38:43;2.80;99.90
69261;DHT22;56378;52.404;20.816;2022-12-24T15:41:22;2.80;99.90
69261;DHT22;56378;52.404;20.816;2022-12-24T15:43:50;2.80;99.90
69261;DHT22;56378;52.404;20.816;2022-12-24T15:48:45;2.80;99.90
69261;DHT22;56378;52.404;20.816;2022-12-24T15:51:11;2.70;99.90
69261;DHT22;56378;52.404;20.816;2022-12-24T15:53:42;2.70;99.90
69261;DHT22;56378;52.404;20.816;2022-12-24T15:56:11;2.80;99.90
69261;DHT22;56378;52.404;20.816;2022-12-24T16:01:27;2.80;99.90
69261;DHT22;56378;52.404;20.816;2022-12-24T16:03:53;2.70;99.90
69261;DHT22;56378;52.404;20.816;2022-12-24T16:06:22;2.70;99.90
69261;DHT22;56378;52.404;20.816;2022-12-24T16:08:48;2.70;99.90
69261;DHT22;56378;52.404;20.816;2022-12-24T16:11:52;2.70;99.90
69261;DHT22;56378;52.404;20.816;2022-12-24T16:14:16;2.60;99.90
69261;DHT22;56378;52.404;20.816;2022-12-24T16:16:50;2.60;99.90
69261;DHT22;56378;52.404;20.816;2022-12-24T16:19:36;2.60;99.90
69261;DHT22;56378;52.404;20.816;2022-12-24T16:22:02;2.60;99.90
69261;DHT22;56378;52.404;20.816;2022-12-24T16:24:48;2.60;99.90
69261;DHT22;56378;52.404;20.816;2022-12-24T16:27:16;2.60;99.90
69261;DHT22;56378;52.404;20.816;2022-12-24T16:29:42;2.60;99.90
69261;DHT22;56378;52.404;20.816;2022-12-24T16:32:33;2.60;99.90
69261;DHT22;56378;52.404;20.816;2022-12-24T16:35:03;2.60;99.90
69261;DHT22;56378;52.404;20.816;2022-12-24T16:37:30;2.50;99.90
69261;DHT22;56378;52.404;20.816;2022-12-24T16:39:55;2.60;99.90
69261;DHT22;56378;52.404;20.816;2022-12-24T16:42:21;2.50;99.90
69261;DHT22;56378;52.404;20.816;2022-12-24T16:45:06;2.60;99.90
69261;DHT22;56378;52.404;20.816;2022-12-24T16:47:33;2.50;99.90
69261;DHT22;56378;52.404;20.816;2022-12-24T16:50:00;2.50;99.90
69261;DHT22;56378;52.404;20.816;2022-12-24T16:52:29;2.50;99.90
69261;DHT22;56378;52.404;20.816;2022-12-24T16:54:58;2.40;99.90
69261;DHT22;56378;52.404;20.816;2022-12-24T16:57:25;2.40;99.90
69261;DHT22;56378;52.404;20.816;2022-12-24T16:59:51;2.30;99.90
69261;DHT22;56378;52.404;20.816;2022-12-24T17:02:20;2.30;99.90
69261;DHT22;56378;52.404;20.816;2022-12-24T17:04:46;2.30;99.90
69261;DHT22;56378;52.404;20.816;2022-12-24T17:07:13;2.20;99.90
69261;DHT22;56378;52.404;20.816;2022-12-24T17:09:39;2.20;99.90
69261;DHT22;56378;52.404;20.816;2022-12-24T17:12:06;2.20;99.90
69261;DHT22;56378;52.404;20.816;2022-12-24T17:14:32;2.20;99.90
69261;DHT22;56378;52.404;20.816;2022-12-24T17:16:58;2.20;99.90
69261;DHT22;56378;52.404;20.816;2022-12-24T17:19:24;2.20;99.90
69261;DHT22;56378;52.404;20.816;2022-12-24T17:21:50;2.20;99.90
69261;DHT22;56378;52.404;20.816;2022-12-24T17:24:15;2.20;99.90
69261;DHT22;56378;52.404;20.816;2022-12-24T17:26:41;2.20;99.90
69261;DHT22;56378;52.404;20.816;2022-12-24T17:29:08;2.20;99.90
69261;DHT22;56378;52.404;20.816;2022-12-24T17:31:34;2.20;99.90
69261;DHT22;56378;52.404;20.816;2022-12-24T17:34:03;2.20;99.90
69261;DHT22;56378;52.404;20.816;2022-12-24T17:36:29;2.20;99.90